sensor_id;sensor_type;location;lat;lon;timestamp;temperature;humidity
20915;DHT22;10617;52.032;5.298;2023-12-22T00:01:41;6.70;99.90
20915;DHT22;10617;52.032;5.298;2023-12-22T00:16:06;6.80;99.90
20915;DHT22;10617;52.032;5.298;2023-12-22T00:39:47;6.80;99.90
20915;DHT22;10617;52.032;5.298;2023-12-22T00:43:50;6.70;99.90
20915;DHT22;10617;52.032;5.298;2023-12-22T00:47:52;6.60;99.90
20915;DHT22;10617;52.032;5.298;2023-12-22T00:51:54;6.40;99.90
20915;DHT22;10617;52.032;5.298;2023-12-22T00:55:56;6.30;99.90
20915;DHT22;10617;52.032;5.298;2023-12-22T00:59:57;6.10;99.90
20915;DHT22;10617;52.032;5.298;2023-12-22T01:03:59;6.10;99.90
20915;DHT22;10617;52.032;5.298;2023-12-22T01:08:01;6.00;99.90
20915;DHT22;10617;52.032;5.298;2023-12-22T01:12:06;6.00;99.90
20915;DHT22;10617;52.032;5.298;2023-12-22T01:16:08;6.00;99.90
20915;DHT22;10617;52.032;5.298;2023-12-22T01:20:10;6.00;99.90
20915;DHT22;10617;52.032;5.298;2023-12-22T01:24:12;6.00;99.90
20915;DHT22;10617;52.032;5.298;2023-12-22T01:28:13;6.00;99.90
20915;DHT22;10617;52.032;5.298;2023-12-22T01:32:15;6.00;99.90
20915;DHT22;10617;52.032;5.298;2023-12-22T01:36:17;6.00;99.90
20915;DHT22;10617;52.032;5.298;2023-12-22T01:50:44;6.10;99.90
20915;DHT22;10617;52.032;5.298;2023-12-22T01:54:46;6.20;99.90
20915;DHT22;10617;52.032;5.298;2023-12-22T01:58:48;6.20;99.90
20915;DHT22;10617;52.032;5.298;2023-12-22T02:02:52;6.20;99.90
20915;DHT22;10617;52.032;5.298;2023-12-22T02:06:53;6.20;99.90
20915;DHT22;10617;52.032;5.298;2023-12-22T02:10:55;6.20;99.90
20915;DHT22;10617;52.032;5.298;2023-12-22T02:14:57;6.20;99.90
20915;DHT22;10617;52.032;5.298;2023-12-22T02:18:59;6.10;99.90
20915;DHT22;10617;52.032;5.298;2023-12-22T02:23:05;6.10;99.90
20915;DHT22;10617;52.032;5.298;2023-12-22T02:31:27;6.10;99.90
20915;DHT22;10617;52.032;5.298;2023-12-22T02:35:30;6.10;99.90
20915;DHT22;10617;52.032;5.298;2023-12-22T02:39:33;6.00;99.90
20915;DHT22;10617;52.032;5.298;2023-12-22T02:43:35;6.00;99.90
20915;DHT22;10617;52.032;5.298;2023-12-22T02:47:37;6.10;99.90
20915;DHT22;10617;52.032;5.298;2023-12-22T02:51:38;6.10;99.90
20915;DHT22;10617;52.032;5.298;2023-12-22T02:55:40;6.20;99.90
20915;DHT22;10617;52.032;5.298;2023-12-22T02:59:42;6.30;99.90
20915;DHT22;10617;52.032;5.298;2023-12-22T03:03:43;6.40;99.90
20915;DHT22;10617;52.032;5.298;2023-12-22T03:07:45;6.50;99.90
20915;DHT22;10617;52.032;5.298;2023-12-22T03:11:47;6.60;99.90
20915;DHT22;10617;52.032;5.298;2023-12-22T03:15:49;6.60;99.90
20915;DHT22;10617;52.032;5.298;2023-12-22T03:19:51;6.80;99.90
20915;DHT22;10617;52.032;5.298;2023-12-22T03:23:52;6.90;99.90
20915;DHT22;10617;52.032;5.298;2023-12-22T03:27:54;6.90;99.90
20915;DHT22;10617;52.032;5.298;2023-12-22T03:31:56;7.00;99.90
20915;DHT22;10617;52.032;5.298;2023-12-22T03:35:57;7.00;99.90
20915;DHT22;10617;52.032;5.298;2023-12-22T03:39:59;7.10;99.90
20915;DHT22;10617;52.032;5.298;2023-12-22T03:44:01;7.20;99.90
20915;DHT22;10617;52.032;5.298;2023-12-22T03:48:02;7.30;99.90
20915;DHT22;10617;52.032;5.298;2023-12-22T03:52:04;7.40;99.90
20915;DHT22;10617;52.032;5.298;2023-12-22T03:56:09;7.40;99.90
20915;DHT22;10617;52.032;5.298;2023-12-22T04:00:11;7.50;99.90
20915;DHT22;10617;52.032;5.298;2023-12-22T04:04:13;7.60;99.90
20915;DHT22;10617;52.032;5.298;2023-12-22T04:08:14;7.70;99.90
20915;DHT22;10617;52.032;5.298;2023-12-22T04:12:16;7.80;99.90
20915;DHT22;10617;52.032;5.298;2023-12-22T04:16:18;7.80;99.90
20915;DHT22;10617;52.032;5.298;2023-12-22T04:20:19;7.90;99.90
20915;DHT22;10617;52.032;5.298;2023-12-22T04:24:21;7.90;99.90
20915;DHT22;10617;52.032;5.298;2023-12-22T04:28:23;7.90;99.90
20915;DHT22;10617;52.032;5.298;2023-12-22T04:32:24;7.90;99.90
20915;DHT22;10617;52.032;5.298;2023-12-22T04:36:26;7.90;99.90
20915;DHT22;10617;52.032;5.298;2023-12-22T04:40:28;7.90;99.90
20915;DHT22;10617;52.032;5.298;2023-12-22T04:44:30;7.90;99.90
20915;DHT22;10617;52.032;5.298;2023-12-22T04:48:31;8.00;99.90
20915;DHT22;10617;52.032;5.298;2023-12-22T04:52:34;8.00;99.90
20915;DHT22;10617;52.032;5.298;2023-12-22T04:56:36;8.00;99.90
20915;DHT22;10617;52.032;5.298;2023-12-22T05:00:38;7.90;99.90
20915;DHT22;10617;52.032;5.298;2023-12-22T05:04:39;8.00;99.90
20915;DHT22;10617;52.032;5.298;2023-12-22T05:08:41;8.00;99.90
20915;DHT22;10617;52.032;5.298;2023-12-22T05:12:43;8.00;99.90
20915;DHT22;10617;52.032;5.298;2023-12-22T05:16:44;8.00;99.90
20915;DHT22;10617;52.032;5.298;2023-12-22T05:20:46;8.10;99.90
20915;DHT22;10617;52.032;5.298;2023-12-22T05:24:48;8.10;99.90
20915;DHT22;10617;52.032;5.298;2023-12-22T05:28:50;8.10;99.90
20915;DHT22;10617;52.032;5.298;2023-12-22T05:32:52;8.10;99.90
20915;DHT22;10617;52.032;5.298;2023-12-22T05:36:53;8.10;99.90
20915;DHT22;10617;52.032;5.298;2023-12-22T05:40:55;8.20;99.90
20915;DHT22;10617;52.032;5.298;2023-12-22T05:44:57;8.20;99.90
20915;DHT22;10617;52.032;5.298;2023-12-22T05:48:59;8.20;99.90
20915;DHT22;10617;52.032;5.298;2023-12-22T05:53:02;8.20;99.90
20915;DHT22;10617;52.032;5.298;2023-12-22T05:57:03;8.20;99.90
20915;DHT22;10617;52.032;5.298;2023-12-22T06:01:07;8.30;99.90
20915;DHT22;10617;52.032;5.298;2023-12-22T06:05:09;8.30;99.90
20915;DHT22;10617;52.032;5.298;2023-12-22T06:09:11;8.30;99.90
20915;DHT22;10617;52.032;5.298;2023-12-22T06:13:14;8.30;99.90
20915;DHT22;10617;52.032;5.298;2023-12-22T06:17:16;8.30;99.90
20915;DHT22;10617;52.032;5.298;2023-12-22T06:21:18;8.40;99.90
20915;DHT22;10617;52.032;5.298;2023-12-22T06:25:19;8.40;99.90
20915;DHT22;10617;52.032;5.298;2023-12-22T06:29:21;8.40;99.90
20915;DHT22;10617;52.032;5.298;2023-12-22T06:33:23;8.40;99.90
20915;DHT22;10617;52.032;5.298;2023-12-22T06:37:25;8.50;99.90
20915;DHT22;10617;52.032;5.298;2023-12-22T06:41:28;8.50;99.90
20915;DHT22;10617;52.032;5.298;2023-12-22T06:45:30;8.50;99.90
20915;DHT22;10617;52.032;5.298;2023-12-22T06:49:32;8.50;99.90
20915;DHT22;10617;52.032;5.298;2023-12-22T06:53:34;8.60;99.90
20915;DHT22;10617;52.032;5.298;2023-12-22T06:57:35;8.60;99.90
20915;DHT22;10617;52.032;5.298;2023-12-22T07:01:38;8.60;99.90
20915;DHT22;10617;52.032;5.298;2023-12-22T07:05:39;8.70;99.90
20915;DHT22;10617;52.032;5.298;2023-12-22T07:09:41;8.70;99.90
20915;DHT22;10617;52.032;5.298;2023-12-22T07:13:43;8.70;99.90
20915;DHT22;10617;52.032;5.298;2023-12-22T07:17:45;8.70;99.90
20915;DHT22;10617;52.032;5.298;2023-12-22T07:21:47;8.70;99.90
20915;DHT22;10617;52.032;5.298;2023-12-22T07:25:48;8.80;99.90
20915;DHT22;10617;52.032;5.298;2023-12-22T07:29:50;8.80;99.90
20915;DHT22;10617;52.032;5.298;2023-12-22T07:33:52;8.80;99.90
20915;DHT22;10617;52.032;5.298;2023-12-22T07:37:54;8.80;99.90
20915;DHT22;10617;52.032;5.298;2023-12-22T07:41:57;8.90;99.90
20915;DHT22;10617;52.032;5.298;2023-12-22T07:45:59;8.80;99.90
20915;DHT22;10617;52.032;5.298;2023-12-22T07:50:00;8.60;99.90
20915;DHT22;10617;52.032;5.298;2023-12-22T07:54:04;8.50;99.90
20915;DHT22;10617;52.032;5.298;2023-12-22T07:58:06;8.40;99.90
20915;DHT22;10617;52.032;5.298;2023-12-22T08:02:08;8.40;99.90
20915;DHT22;10617;52.032;5.298;2023-12-22T08:06:10;8.40;99.90
20915;DHT22;10617;52.032;5.298;2023-12-22T08:10:13;8.40;99.90
20915;DHT22;10617;52.032;5.298;2023-12-22T08:14:14;8.50;99.90
20915;DHT22;10617;52.032;5.298;2023-12-22T08:18:16;8.60;99.90
20915;DHT22;10617;52.032;5.298;2023-12-22T08:22:18;8.70;99.90
20915;DHT22;10617;52.032;5.298;2023-12-22T08:26:20;8.60;99.90
20915;DHT22;10617;52.032;5.298;2023-12-22T08:30:23;8.50;99.90
20915;DHT22;10617;52.032;5.298;2023-12-22T08:34:26;8.30;99.90
20915;DHT22;10617;52.032;5.298;2023-12-22T08:38:27;8.30;99.90
20915;DHT22;10617;52.032;5.298;2023-12-22T08:42:29;8.30;99.90
20915;DHT22;10617;52.032;5.298;2023-12-22T08:46:32;8.30;99.90
20915;DHT22;10617;52.032;5.298;2023-12-22T08:50:34;8.30;99.90
20915;DHT22;10617;52.032;5.298;2023-12-22T08:54:36;8.30;99.90
20915;DHT22;10617;52.032;5.298;2023-12-22T08:58:37;8.40;99.90
20915;DHT22;10617;52.032;5.298;2023-12-22T09:02:39;8.50;99.90
20915;DHT22;10617;52.032;5.298;2023-12-22T09:06:41;8.60;99.90
20915;DHT22;10617;52.032;5.298;2023-12-22T09:10:43;8.60;99.90
20915;DHT22;10617;52.032;5.298;2023-12-22T09:14:46;8.70;99.90
20915;DHT22;10617;52.032;5.298;2023-12-22T09:18:48;8.70;99.90
20915;DHT22;10617;52.032;5.298;2023-12-22T09:22:51;8.60;99.90
20915;DHT22;10617;52.032;5.298;2023-12-22T09:26:53;8.60;99.90
20915;DHT22;10617;52.032;5.298;2023-12-22T09:30:54;8.70;99.90
20915;DHT22;10617;52.032;5.298;2023-12-22T09:34:56;8.70;99.90
20915;DHT22;10617;52.032;5.298;2023-12-22T09:39:00;8.70;99.90
20915;DHT22;10617;52.032;5.298;2023-12-22T09:43:02;8.70;99.90
20915;DHT22;10617;52.032;5.298;2023-12-22T09:47:04;8.80;99.90
20915;DHT22;10617;52.032;5.298;2023-12-22T09:51:07;8.80;99.90
20915;DHT22;10617;52.032;5.298;2023-12-22T09:55:08;8.90;99.90
20915;DHT22;10617;52.032;5.298;2023-12-22T09:59:11;8.90;99.90
20915;DHT22;10617;52.032;5.298;2023-12-22T10:03:14;9.00;99.90
20915;DHT22;10617;52.032;5.298;2023-12-22T10:07:17;9.10;99.90
20915;DHT22;10617;52.032;5.298;2023-12-22T10:11:19;9.10;99.90
20915;DHT22;10617;52.032;5.298;2023-12-22T10:15:22;9.10;99.90
20915;DHT22;10617;52.032;5.298;2023-12-22T10:19:27;9.20;99.90
20915;DHT22;10617;52.032;5.298;2023-12-22T10:23:28;9.30;99.90
20915;DHT22;10617;52.032;5.298;2023-12-22T10:27:30;9.30;99.90
20915;DHT22;10617;52.032;5.298;2023-12-22T10:31:42;9.40;99.90
20915;DHT22;10617;52.032;5.298;2023-12-22T10:35:43;9.40;99.90
20915;DHT22;10617;52.032;5.298;2023-12-22T10:39:45;9.50;99.90
20915;DHT22;10617;52.032;5.298;2023-12-22T10:43:50;9.50;99.90
20915;DHT22;10617;52.032;5.298;2023-12-22T10:47:52;9.40;99.90
20915;DHT22;10617;52.032;5.298;2023-12-22T10:51:55;9.40;99.90
20915;DHT22;10617;52.032;5.298;2023-12-22T10:55:57;9.40;99.90
20915;DHT22;10617;52.032;5.298;2023-12-22T10:59:59;9.40;99.90
20915;DHT22;10617;52.032;5.298;2023-12-22T11:04:01;9.50;99.90
20915;DHT22;10617;52.032;5.298;2023-12-22T11:08:03;9.50;99.90
20915;DHT22;10617;52.032;5.298;2023-12-22T11:12:10;9.50;99.90
20915;DHT22;10617;52.032;5.298;2023-12-22T11:16:12;9.50;99.90
20915;DHT22;10617;52.032;5.298;2023-12-22T11:20:15;9.50;99.90
20915;DHT22;10617;52.032;5.298;2023-12-22T11:24:17;9.50;99.90
20915;DHT22;10617;52.032;5.298;2023-12-22T11:28:19;9.50;99.90
20915;DHT22;10617;52.032;5.298;2023-12-22T11:32:23;9.60;99.90
20915;DHT22;10617;52.032;5.298;2023-12-22T11:36:25;9.70;99.90
20915;DHT22;10617;52.032;5.298;2023-12-22T11:40:27;9.70;99.90
20915;DHT22;10617;52.032;5.298;2023-12-22T11:44:29;9.80;99.90
20915;DHT22;10617;52.032;5.298;2023-12-22T11:48:30;9.80;99.90
20915;DHT22;10617;52.032;5.298;2023-12-22T11:52:32;9.80;99.90
20915;DHT22;10617;52.032;5.298;2023-12-22T11:56:34;9.80;99.90
20915;DHT22;10617;52.032;5.298;2023-12-22T12:04:37;9.70;99.90
20915;DHT22;10617;52.032;5.298;2023-12-22T12:08:39;9.70;99.90
20915;DHT22;10617;52.032;5.298;2023-12-22T12:12:41;9.70;99.90
20915;DHT22;10617;52.032;5.298;2023-12-22T12:16:43;9.80;99.90
20915;DHT22;10617;52.032;5.298;2023-12-22T12:20:45;9.80;99.90
20915;DHT22;10617;52.032;5.298;2023-12-22T12:24:47;9.90;99.90
20915;DHT22;10617;52.032;5.298;2023-12-22T12:28:48;10.00;99.90
20915;DHT22;10617;52.032;5.298;2023-12-22T12:32:50;9.90;99.90
20915;DHT22;10617;52.032;5.298;2023-12-22T12:36:53;9.90;99.90
20915;DHT22;10617;52.032;5.298;2023-12-22T12:40:55;9.90;99.90
20915;DHT22;10617;52.032;5.298;2023-12-22T12:44:58;10.00;99.90
20915;DHT22;10617;52.032;5.298;2023-12-22T12:49:07;10.10;99.90
20915;DHT22;10617;52.032;5.298;2023-12-22T12:53:09;10.10;99.90
20915;DHT22;10617;52.032;5.298;2023-12-22T12:57:15;10.10;99.90
20915;DHT22;10617;52.032;5.298;2023-12-22T13:01:17;10.10;99.90
20915;DHT22;10617;52.032;5.298;2023-12-22T13:05:26;10.10;99.90
20915;DHT22;10617;52.032;5.298;2023-12-22T13:09:31;10.20;99.90
20915;DHT22;10617;52.032;5.298;2023-12-22T13:13:40;10.20;99.90
20915;DHT22;10617;52.032;5.298;2023-12-22T13:17:43;10.30;99.90
20915;DHT22;10617;52.032;5.298;2023-12-22T13:21:44;10.30;99.90
20915;DHT22;10617;52.032;5.298;2023-12-22T13:25:46;10.30;99.90
20915;DHT22;10617;52.032;5.298;2023-12-22T13:29:48;10.40;99.90
20915;DHT22;10617;52.032;5.298;2023-12-22T13:33:50;10.40;99.90
20915;DHT22;10617;52.032;5.298;2023-12-22T13:37:52;10.40;99.90
20915;DHT22;10617;52.032;5.298;2023-12-22T13:41:54;10.40;99.90
20915;DHT22;10617;52.032;5.298;2023-12-22T13:45:56;10.30;99.90
20915;DHT22;10617;52.032;5.298;2023-12-22T13:49:58;10.30;99.90
20915;DHT22;10617;52.032;5.298;2023-12-22T13:54:00;10.30;99.90
20915;DHT22;10617;52.032;5.298;2023-12-22T13:58:01;10.40;99.90
20915;DHT22;10617;52.032;5.298;2023-12-22T14:02:04;10.50;99.90
20915;DHT22;10617;52.032;5.298;2023-12-22T14:06:05;10.50;99.90
20915;DHT22;10617;52.032;5.298;2023-12-22T14:10:10;10.50;99.90
20915;DHT22;10617;52.032;5.298;2023-12-22T14:14:12;10.60;99.90
20915;DHT22;10617;52.032;5.298;2023-12-22T14:18:14;10.60;99.90
20915;DHT22;10617;52.032;5.298;2023-12-22T14:22:16;10.60;99.90
20915;DHT22;10617;52.032;5.298;2023-12-22T14:26:18;10.60;99.90
20915;DHT22;10617;52.032;5.298;2023-12-22T14:30:20;10.60;99.90
20915;DHT22;10617;52.032;5.298;2023-12-22T14:34:21;10.60;99.90
20915;DHT22;10617;52.032;5.298;2023-12-22T14:38:23;10.60;99.90
20915;DHT22;10617;52.032;5.298;2023-12-22T14:42:25;10.50;99.90
20915;DHT22;10617;52.032;5.298;2023-12-22T14:46:26;10.40;99.90
20915;DHT22;10617;52.032;5.298;2023-12-22T14:50:29;10.50;99.90
20915;DHT22;10617;52.032;5.298;2023-12-22T14:54:30;10.50;99.90
20915;DHT22;10617;52.032;5.298;2023-12-22T14:58:32;10.50;99.90
20915;DHT22;10617;52.032;5.298;2023-12-22T15:02:34;10.30;99.90
20915;DHT22;10617;52.032;5.298;2023-12-22T15:06:39;10.20;99.90
20915;DHT22;10617;52.032;5.298;2023-12-22T15:10:42;10.10;99.90
20915;DHT22;10617;52.032;5.298;2023-12-22T15:14:44;10.10;99.90
20915;DHT22;10617;52.032;5.298;2023-12-22T15:18:46;10.00;99.90
20915;DHT22;10617;52.032;5.298;2023-12-22T15:22:47;10.00;99.90
20915;DHT22;10617;52.032;5.298;2023-12-22T15:26:50;10.00;99.90
20915;DHT22;10617;52.032;5.298;2023-12-22T15:30:52;10.00;99.90
20915;DHT22;10617;52.032;5.298;2023-12-22T15:34:53;10.00;99.90
20915;DHT22;10617;52.032;5.298;2023-12-22T15:38:55;10.00;99.90
20915;DHT22;10617;52.032;5.298;2023-12-22T15:42:57;10.00;99.90
20915;DHT22;10617;52.032;5.298;2023-12-22T15:46:58;10.10;99.90
20915;DHT22;10617;52.032;5.298;2023-12-22T15:51:07;10.00;99.90
20915;DHT22;10617;52.032;5.298;2023-12-22T15:55:09;10.00;99.90
20915;DHT22;10617;52.032;5.298;2023-12-22T15:59:10;10.00;99.90
20915;DHT22;10617;52.032;5.298;2023-12-22T16:03:12;10.10;99.90
20915;DHT22;10617;52.032;5.298;2023-12-22T16:07:14;10.10;99.90
20915;DHT22;10617;52.032;5.298;2023-12-22T16:11:18;10.20;99.90
20915;DHT22;10617;52.032;5.298;2023-12-22T16:15:20;10.20;99.90
20915;DHT22;10617;52.032;5.298;2023-12-22T16:19:21;10.30;99.90
20915;DHT22;10617;52.032;5.298;2023-12-22T16:23:23;10.30;99.90
20915;DHT22;10617;52.032;5.298;2023-12-22T16:27:26;10.40;99.90
20915;DHT22;10617;52.032;5.298;2023-12-22T16:31:28;10.40;99.90
20915;DHT22;10617;52.032;5.298;2023-12-22T16:35:30;10.30;99.90
20915;DHT22;10617;52.032;5.298;2023-12-22T16:39:32;10.20;99.90
20915;DHT22;10617;52.032;5.298;2023-12-22T16:43:35;10.10;99.90
20915;DHT22;10617;52.032;5.298;2023-12-22T16:47:37;10.10;99.90
20915;DHT22;10617;52.032;5.298;2023-12-22T16:51:39;10.00;99.90
20915;DHT22;10617;52.032;5.298;2023-12-22T16:55:41;9.90;99.90
20915;DHT22;10617;52.032;5.298;2023-12-22T16:59:43;9.80;99.90
20915;DHT22;10617;52.032;5.298;2023-12-22T17:03:44;9.80;99.90
20915;DHT22;10617;52.032;5.298;2023-12-22T17:07:46;9.70;99.90
20915;DHT22;10617;52.032;5.298;2023-12-22T17:11:48;9.60;99.90
20915;DHT22;10617;52.032;5.298;2023-12-22T17:15:50;9.60;99.90
20915;DHT22;10617;52.032;5.298;2023-12-22T17:19:52;9.60;99.90
20915;DHT22;10617;52.032;5.298;2023-12-22T17:23:53;9.60;99.90
20915;DHT22;10617;52.032;5.298;2023-12-22T17:27:55;9.60;99.90
20915;DHT22;10617;52.032;5.298;2023-12-22T17:31:57;9.60;99.90
20915;DHT22;10617;52.032;5.298;2023-12-22T17:35:59;9.60;99.90
20915;DHT22;10617;52.032;5.298;2023-12-22T17:40:01;9.60;99.90
20915;DHT22;10617;52.032;5.298;2023-12-22T17:44:02;9.70;99.90
20915;DHT22;10617;52.032;5.298;2023-12-22T17:48:04;9.70;99.90
20915;DHT22;10617;52.032;5.298;2023-12-22T17:52:06;9.80;99.90
20915;DHT22;10617;52.032;5.298;2023-12-22T17:56:08;9.80;99.90
20915;DHT22;10617;52.032;5.298;2023-12-22T18:00:10;9.80;99.90
20915;DHT22;10617;52.032;5.298;2023-12-22T18:04:12;9.90;99.90
20915;DHT22;10617;52.032;5.298;2023-12-22T18:08:14;10.00;99.90
20915;DHT22;10617;52.032;5.298;2023-12-22T18:12:15;10.00;99.90
20915;DHT22;10617;52.032;5.298;2023-12-22T18:16:18;10.00;99.90
20915;DHT22;10617;52.032;5.298;2023-12-22T18:20:20;10.00;99.90
20915;DHT22;10617;52.032;5.298;2023-12-22T18:24:23;10.00;99.90
20915;DHT22;10617;52.032;5.298;2023-12-22T18:28:25;10.00;99.90
20915;DHT22;10617;52.032;5.298;2023-12-22T18:32:27;10.10;99.90
20915;DHT22;10617;52.032;5.298;2023-12-22T18:36:29;10.10;99.90
20915;DHT22;10617;52.032;5.298;2023-12-22T18:40:30;10.10;99.90
20915;DHT22;10617;52.032;5.298;2023-12-22T18:44:32;10.10;99.90
20915;DHT22;10617;52.032;5.298;2023-12-22T18:48:34;10.10;99.90
20915;DHT22;10617;52.032;5.298;2023-12-22T18:52:36;10.10;99.90
20915;DHT22;10617;52.032;5.298;2023-12-22T18:56:38;10.20;99.90
20915;DHT22;10617;52.032;5.298;2023-12-22T19:00:40;10.20;99.90
20915;DHT22;10617;52.032;5.298;2023-12-22T19:04:41;10.20;99.90
20915;DHT22;10617;52.032;5.298;2023-12-22T19:08:43;10.20;99.90
20915;DHT22;10617;52.032;5.298;2023-12-22T19:12:45;10.10;99.90
20915;DHT22;10617;52.032;5.298;2023-12-22T19:16:48;10.00;99.90
20915;DHT22;10617;52.032;5.298;2023-12-22T19:20:49;10.00;99.90
20915;DHT22;10617;52.032;5.298;2023-12-22T19:24:51;10.00;99.90
20915;DHT22;10617;52.032;5.298;2023-12-22T19:28:55;10.10;99.90
20915;DHT22;10617;52.032;5.298;2023-12-22T19:32:57;9.90;99.90
20915;DHT22;10617;52.032;5.298;2023-12-22T19:36:59;9.50;99.90
20915;DHT22;10617;52.032;5.298;2023-12-22T19:41:00;8.90;99.90
20915;DHT22;10617;52.032;5.298;2023-12-22T19:45:02;8.60;99.90
20915;DHT22;10617;52.032;5.298;2023-12-22T19:59:39;8.20;99.90
20915;DHT22;10617;52.032;5.298;2023-12-22T20:03:41;8.20;99.90
20915;DHT22;10617;52.032;5.298;2023-12-22T20:07:43;8.20;99.90
20915;DHT22;10617;52.032;5.298;2023-12-22T20:11:44;8.20;99.90
20915;DHT22;10617;52.032;5.298;2023-12-22T20:15:46;8.20;99.90
20915;DHT22;10617;52.032;5.298;2023-12-22T20:19:49;8.10;99.90
20915;DHT22;10617;52.032;5.298;2023-12-22T20:23:51;8.10;99.90
20915;DHT22;10617;52.032;5.298;2023-12-22T20:27:56;8.10;99.90
20915;DHT22;10617;52.032;5.298;2023-12-22T20:31:58;8.10;99.90
20915;DHT22;10617;52.032;5.298;2023-12-22T20:36:00;8.10;99.90
20915;DHT22;10617;52.032;5.298;2023-12-22T20:40:01;8.10;99.90
20915;DHT22;10617;52.032;5.298;2023-12-22T20:44:03;8.10;99.90
20915;DHT22;10617;52.032;5.298;2023-12-22T20:48:05;8.10;99.90
20915;DHT22;10617;52.032;5.298;2023-12-22T20:52:07;8.10;99.90
20915;DHT22;10617;52.032;5.298;2023-12-22T20:56:16;8.10;99.90
20915;DHT22;10617;52.032;5.298;2023-12-22T21:00:18;8.10;99.90
20915;DHT22;10617;52.032;5.298;2023-12-22T21:04:20;8.00;99.90
20915;DHT22;10617;52.032;5.298;2023-12-22T21:08:22;8.00;99.90
20915;DHT22;10617;52.032;5.298;2023-12-22T21:12:23;8.00;99.90
20915;DHT22;10617;52.032;5.298;2023-12-22T21:16:25;8.00;99.90
20915;DHT22;10617;52.032;5.298;2023-12-22T21:20:27;8.00;99.90
20915;DHT22;10617;52.032;5.298;2023-12-22T21:24:28;8.00;99.90
20915;DHT22;10617;52.032;5.298;2023-12-22T21:28:30;8.00;99.90
20915;DHT22;10617;52.032;5.298;2023-12-22T21:32:32;8.00;99.90
20915;DHT22;10617;52.032;5.298;2023-12-22T21:36:34;8.00;99.90
20915;DHT22;10617;52.032;5.298;2023-12-22T21:40:36;8.00;99.90
20915;DHT22;10617;52.032;5.298;2023-12-22T21:44:40;8.00;99.90
20915;DHT22;10617;52.032;5.298;2023-12-22T21:48:42;8.00;99.90
20915;DHT22;10617;52.032;5.298;2023-12-22T21:52:44;8.00;99.90
20915;DHT22;10617;52.032;5.298;2023-12-22T21:56:46;8.00;99.90
20915;DHT22;10617;52.032;5.298;2023-12-22T22:00:47;8.00;99.90
20915;DHT22;10617;52.032;5.298;2023-12-22T22:04:49;8.00;99.90
20915;DHT22;10617;52.032;5.298;2023-12-22T22:08:51;8.00;99.90
20915;DHT22;10617;52.032;5.298;2023-12-22T22:12:53;8.00;99.90
20915;DHT22;10617;52.032;5.298;2023-12-22T22:16:54;8.00;99.90
20915;DHT22;10617;52.032;5.298;2023-12-22T22:20:56;8.00;99.90
20915;DHT22;10617;52.032;5.298;2023-12-22T22:24:58;8.00;99.90
20915;DHT22;10617;52.032;5.298;2023-12-22T22:28:59;8.00;99.90
20915;DHT22;10617;52.032;5.298;2023-12-22T22:33:01;7.90;99.90
20915;DHT22;10617;52.032;5.298;2023-12-22T22:37:06;7.90;99.90
20915;DHT22;10617;52.032;5.298;2023-12-22T22:41:08;7.80;99.90
20915;DHT22;10617;52.032;5.298;2023-12-22T22:45:11;7.80;99.90
20915;DHT22;10617;52.032;5.298;2023-12-22T22:49:13;7.70;99.90
20915;DHT22;10617;52.032;5.298;2023-12-22T22:53:15;7.70;99.90
20915;DHT22;10617;52.032;5.298;2023-12-22T22:57:17;7.70;99.90
20915;DHT22;10617;52.032;5.298;2023-12-22T23:01:18;7.70;99.90
20915;DHT22;10617;52.032;5.298;2023-12-22T23:05:20;7.70;99.90
20915;DHT22;10617;52.032;5.298;2023-12-22T23:09:22;7.70;99.90
20915;DHT22;10617;52.032;5.298;2023-12-22T23:13:24;7.80;99.90
20915;DHT22;10617;52.032;5.298;2023-12-22T23:17:26;7.80;99.90
20915;DHT22;10617;52.032;5.298;2023-12-22T23:21:28;7.80;99.90
20915;DHT22;10617;52.032;5.298;2023-12-22T23:25:30;7.80;99.90
20915;DHT22;10617;52.032;5.298;2023-12-22T23:29:32;7.80;99.90
20915;DHT22;10617;52.032;5.298;2023-12-22T23:33:33;7.80;99.90
20915;DHT22;10617;52.032;5.298;2023-12-22T23:37:37;7.80;99.90
20915;DHT22;10617;52.032;5.298;2023-12-22T23:41:38;7.90;99.90
20915;DHT22;10617;52.032;5.298;2023-12-22T23:45:40;7.90;99.90
20915;DHT22;10617;52.032;5.298;2023-12-22T23:49:42;7.90;99.90
20915;DHT22;10617;52.032;5.298;2023-12-22T23:53:44;7.90;99.90
20915;DHT22;10617;52.032;5.298;2023-12-22T23:57:45;7.90;99.90
